Chokoloskee, Florida
Current Conditions -  °F | °C
As of 3:35 AM on Monday 22 Dec 2014 (Local Time) from KMKY Reporting Station
Scattered Clouds Scattered Clouds  
Wind Chill: 66°   Ceiling: Unl
Heat Index: 66°   Visibility: 10mi
Dew Point: 63°   Wind: 5mph
Humidity: 88%   Direction: 100°E
Pressure: 30"   Gusts: NA
Location:  25.81°N, 81.36°W
Report Text: KMKY 220835Z AUTO 10004KT 10SM SCT120 19/17 A3000 RMK AO1
Loading
Personal Weather Stations






























Interactive Weather Map New forecast layout! Learn more

10-Day Weather Forecast

Advertisements
Track Severe Weather on mobile